Highland, Ohio
Current Conditions -  °F | °C
As of 5:54 AM on Wednesday 26 Nov 2014 (Local Time) from KILN Reporting Station
Clear Clear  
Wind Chill: 14°   Ceiling: Unl
Heat Index: 25°   Visibility: 8mi
Dew Point: 22°   Wind: 12mph
Humidity: 88%   Direction: 10°N
Pressure: 30.09"   Gusts: NA
Location:  39.34°N, 83.6°W
Report Text: KILN 261054Z AUTO 01010KT 8SM CLR M04/M06 A3009 RMK AO2 SLP215 T10391056
Loading
Personal Weather Stations






























Interactive Weather Map New forecast layout! Learn more

10-Day Weather Forecast

Advertisements
Track Severe Weather on mobile